METAR rapporten vliegvelden

   
EHVK - Volkel Rnlafb, Netherlands
Afstand tot: ZW 18 km
Gewijzigd: 31-07-2021 08:38
Light Showers, Regen, Heavy Drizzle, Bewolking  
Light Showers, Regen, Heavy Drizzle, Bewolking  
   Wind: ZW 27.8 km/h
Wind: ZW 27.8 km/h
Temperatuur: 15°C
Dauwpunt: 14°C
Vochtigheid: 94%
Barometer: 1006 hPa
Bewolking: Bewolking
Zicht: 4 km
Bewolking: Licht bewolkt 700 ft,
Bewolking 1500 ft
EHVK 310638Z AUTO 22015KT 3500 -SHRA +DZ FEW007 OVC015 15/14 Q1006 YLO
EDLV - Niederrhein, Germany
Afstand tot: ZO 25 km
Gewijzigd: 31-07-2021 08:20
Wat regen mogelijk, Grotendeels bewolkt  
Wat regen mogelijk, Grotendeels bewolkt  
   Wind: ZW 20.4 km/h
Wind: ZW 20.4 km/h
Temperatuur: 16°C
Dauwpunt: 13°C
Vochtigheid: 83%
Barometer: 1006 hPa
Bewolking: Grotendeels bewolkt
Zicht: 9 km
Bewolking: Grotendeels bewolkt 1800 ft
EDLV 310620Z 22011KT 9000 -RA BKN018 16/13 Q1006
EHDL - Deelen Rnlafb, Netherlands
Afstand tot: N 35 km
Gewijzigd: 31-07-2021 08:25
Grotendeels bewolkt  
Grotendeels bewolkt  
   Wind: ZW 20.4 km/h
Wind: ZW 20.4 km/h
Temperatuur: 15°C
Dauwpunt: 14°C
Vochtigheid: 94%
Barometer: 1004 hPa
Bewolking: Grotendeels bewolkt
Zicht: meer dan 10 km
Bewolking: Licht bewolkt 800 ft,
Gedeeltelijk bewolkt 1200 ft,
Grotendeels bewolkt 1500 ft
EHDL 310625Z AUTO 22011KT 150V270 9999 FEW008 SCT012 BKN015CB 15/14 Q1004 GRN
EHEH - Eindhoven Rnlafb, Netherlands
Afstand tot: ZW 48 km
Gewijzigd: 31-07-2021 08:25
Bewolking  
Bewolking  
   Wind: ZW 27.8 km/h
Wind: ZW 27.8 km/h
Temperatuur: 16°C
Dauwpunt: 13°C
Vochtigheid: 83%
Barometer: 1006 hPa
Bewolking: Bewolking
Zicht: meer dan 10 km
Bewolking: Gedeeltelijk bewolkt 1600 ft,
Grotendeels bewolkt 2000 ft,
Bewolking 2300 ft
EHEH 310625Z AUTO 22015KT 190V270 9999 SCT016 BKN020 OVC023 16/13 Q1006 WHT TEMPO 24015G25KT 4000 -RA -SHRA FEW010 SCT014 FEW018CB BKN020
EHGR - Gilze-Rijen Rnla, Netherlands
Afstand tot: WZW 70 km
Gewijzigd: 31-07-2021 08:38
Bewolking  
Bewolking  
   Wind: ZW 14.8 km/h
Wind: ZW 14.8 km/h
Temperatuur: 15°C
Dauwpunt: 14°C
Vochtigheid: 94%
Barometer: 1006 hPa
Bewolking: Bewolking
Zicht: meer dan 10 km
Bewolking: Licht bewolkt 1200 ft,
Grotendeels bewolkt 1600 ft,
Bewolking 2000 ft
EHGR 310638Z AUTO 23008KT 190V270 9999 FEW012 BKN016 OVC020 15/14 Q1006 WHT
EBBL - Kleine-Brogel(Ba, Belgium
Afstand tot: ZZW 71 km
Gewijzigd: 31-07-2021 08:25
Grotendeels bewolkt  
Grotendeels bewolkt  
   Wind: ZW 24.1 km/h
Wind: ZW 24.1 km/h
Temperatuur: 16°C
Dauwpunt: 12°C
Vochtigheid: 77%
Barometer: 1007 hPa
Bewolking: Grotendeels bewolkt
Zicht: meer dan 10 km
Bewolking: Grotendeels bewolkt 1800 ft,
Grotendeels bewolkt 3400 ft
EBBL 310625Z AUTO 23013KT 9999 BKN018/// BKN034/// 16/12 Q1007 WHT

Script ontwikkeld door  Saratoga-weather.org Aangepast voor de template door  Weerstation Leuven